createdAt,value
2023-03-22T00:02:19.184Z,615.00
2023-03-22T00:06:19.072Z,614.00
2023-03-22T00:10:19.025Z,615.00
2023-03-22T00:14:18.981Z,614.00
2023-03-22T00:18:18.974Z,616.00
2023-03-22T00:22:18.938Z,619.00
2023-03-22T00:26:18.921Z,620.00
2023-03-22T00:30:18.824Z,615.00
2023-03-22T00:34:18.817Z,622.00
2023-03-22T00:38:18.769Z,617.00
2023-03-22T00:42:18.715Z,621.00
2023-03-22T00:46:18.736Z,612.00
2023-03-22T00:50:18.643Z,620.00
2023-03-22T00:54:18.661Z,616.00
2023-03-22T00:58:18.565Z,620.00
2023-03-22T01:02:18.610Z,616.00
2023-03-22T01:06:18.726Z,613.00
2023-03-22T01:10:18.849Z,623.00
2023-03-22T01:14:18.910Z,616.00
2023-03-22T01:18:19.005Z,617.00
2023-03-22T01:22:19.137Z,627.00
2023-03-22T01:26:19.210Z,621.00
2023-03-22T01:30:19.323Z,614.00
2023-03-22T01:34:19.461Z,618.00
2023-03-22T01:38:19.588Z,615.00
2023-03-22T01:42:19.722Z,621.00
2023-03-22T01:46:19.913Z,615.00
2023-03-22T01:50:19.929Z,619.00
2023-03-22T01:54:20.054Z,614.00
2023-03-22T01:58:20.139Z,620.00
2023-03-22T02:02:20.375Z,622.00
2023-03-22T02:06:20.395Z,619.00
2023-03-22T02:10:20.548Z,622.00
2023-03-22T02:14:20.661Z,622.00
2023-03-22T02:18:20.787Z,617.00
2023-03-22T02:22:20.957Z,625.00
2023-03-22T02:26:21.113Z,617.00
2023-03-22T02:30:21.218Z,617.00
2023-03-22T02:34:21.384Z,618.00
2023-03-22T02:38:21.536Z,610.00
2023-03-22T02:42:21.673Z,618.00
2023-03-22T02:46:21.961Z,616.00
2023-03-22T02:50:21.965Z,611.00
2023-03-22T02:54:22.092Z,613.00
2023-03-22T02:58:22.297Z,619.00
2023-03-22T03:02:22.460Z,617.00
2023-03-22T03:06:22.587Z,615.00
2023-03-22T03:10:22.694Z,617.00
2023-03-22T03:14:22.846Z,618.00
2023-03-22T03:18:23.013Z,617.00
2023-03-22T03:22:23.172Z,621.00
2023-03-22T03:26:23.370Z,614.00
2023-03-22T03:30:23.569Z,614.00
2023-03-22T03:34:23.746Z,614.00
2023-03-22T03:38:23.907Z,616.00
2023-03-22T03:42:24.067Z,612.00
2023-03-22T03:46:24.229Z,616.00
2023-03-22T03:50:24.416Z,614.00
2023-03-22T03:54:24.544Z,615.00
2023-03-22T03:58:24.758Z,621.00
2023-03-22T04:02:24.970Z,618.00
2023-03-22T04:06:25.077Z,611.00
2023-03-22T04:10:25.239Z,614.00
2023-03-22T04:14:25.405Z,612.00
2023-03-22T04:18:25.570Z,610.00
2023-03-22T04:22:25.720Z,616.00
2023-03-22T04:26:26.808Z,612.00
2023-03-22T04:30:26.106Z,613.00
2023-03-22T04:34:26.259Z,618.00
2023-03-22T04:38:26.434Z,614.00
2023-03-22T04:42:26.668Z,614.00
2023-03-22T04:46:26.854Z,613.00
2023-03-22T04:50:27.021Z,610.00
2023-03-22T04:54:27.204Z,612.00
2023-03-22T04:58:27.418Z,615.00
2023-03-22T05:02:27.659Z,610.00
2023-03-22T05:06:27.651Z,594.00
2023-03-22T05:10:27.536Z,574.00
2023-03-22T05:14:27.616Z,557.00
2023-03-22T05:18:27.476Z,549.00
2023-03-22T05:22:27.447Z,526.00
2023-03-22T05:26:27.428Z,523.00
2023-03-22T05:30:27.351Z,506.00
2023-03-22T05:34:27.824Z,506.00
2023-03-22T05:38:27.277Z,513.00
2023-03-22T05:42:27.301Z,511.00
2023-03-22T05:46:27.502Z,511.00
2023-03-22T05:50:27.667Z,521.00
2023-03-22T05:54:27.891Z,505.00
2023-03-22T05:58:28.001Z,503.00
2023-03-22T06:02:28.132Z,500.00
2023-03-22T06:06:28.345Z,509.00
2023-03-22T06:10:28.341Z,505.00
2023-03-22T06:14:28.359Z,505.00
2023-03-22T06:18:28.520Z,503.00
2023-03-22T06:22:28.684Z,507.00
2023-03-22T06:26:28.768Z,508.00
2023-03-22T06:30:28.812Z,516.00
2023-03-22T06:34:28.852Z,512.00
2023-03-22T06:38:29.125Z,520.00
2023-03-22T06:42:29.276Z,520.00
2023-03-22T06:46:29.670Z,497.00
2023-03-22T06:50:29.612Z,549.00
2023-03-22T06:54:29.776Z,539.00
2023-03-22T06:58:29.968Z,533.00
2023-03-22T07:02:29.865Z,557.00
2023-03-22T07:06:29.995Z,570.00
2023-03-22T07:10:29.971Z,580.00
2023-03-22T07:14:30.411Z,536.00
2023-03-22T07:18:29.898Z,544.00
2023-03-22T07:22:29.861Z,502.00
2023-03-22T07:26:29.819Z,501.00
2023-03-22T07:30:29.820Z,500.00
2023-03-22T07:34:29.732Z,507.00
2023-03-22T07:38:29.717Z,601.00
2023-03-22T07:42:29.653Z,596.00
2023-03-22T07:46:29.676Z,627.00
2023-03-22T07:50:29.772Z,629.00
2023-03-22T07:54:33.758Z,620.00
2023-03-22T07:58:29.533Z,603.00
2023-03-22T08:02:29.725Z,718.00
2023-03-22T08:06:29.492Z,707.00
2023-03-22T08:10:29.399Z,624.00
2023-03-22T08:14:36.335Z,568.00
2023-03-22T08:18:30.333Z,619.00
2023-03-22T08:22:29.312Z,607.00
2023-03-22T08:26:29.282Z,568.00
2023-03-22T08:30:29.240Z,497.00
2023-03-22T08:34:29.433Z,515.00
2023-03-22T08:38:29.497Z,505.00
2023-03-22T08:42:29.678Z,510.00
2023-03-22T08:46:29.943Z,500.00
2023-03-22T08:50:29.980Z,502.00
2023-03-22T08:54:30.164Z,612.00
2023-03-22T08:58:32.782Z,600.00
2023-03-22T09:02:30.248Z,611.00
2023-03-22T09:06:36.232Z,647.00
2023-03-22T09:10:30.179Z,607.00
2023-03-22T09:14:30.160Z,581.00
2023-03-22T09:18:30.074Z,623.00
2023-03-22T09:26:48.843Z,500.00
2023-03-22T09:30:48.791Z,517.00
2023-03-22T09:34:48.757Z,500.00
2023-03-22T09:38:48.739Z,492.00
2023-03-22T09:42:50.141Z,670.00
2023-03-22T09:46:50.261Z,1068.00
2023-03-22T09:50:48.628Z,1411.00
2023-03-22T09:54:49.994Z,1502.00
2023-03-22T09:58:52.704Z,1656.00
2023-03-22T10:02:48.693Z,1732.00
2023-03-22T10:06:48.465Z,1927.00
2023-03-22T10:10:51.882Z,961.00
2023-03-22T10:14:48.382Z,1082.00
2023-03-22T10:18:48.348Z,1007.00
2023-03-22T10:22:48.380Z,894.00
2023-03-22T10:26:55.797Z,901.00
2023-03-22T10:30:48.296Z,535.00
2023-03-22T10:34:48.204Z,1136.00
2023-03-22T10:38:48.142Z,812.00
2023-03-22T10:42:48.154Z,1153.00
2023-03-22T10:46:48.209Z,825.00
2023-03-22T10:50:48.365Z,884.00
2023-03-22T10:54:48.542Z,1230.00
2023-03-22T10:58:48.711Z,861.00
2023-03-22T11:02:48.881Z,846.00
2023-03-22T11:06:49.020Z,664.00
2023-03-22T11:10:49.823Z,1252.00
2023-03-22T11:14:49.140Z,557.00
2023-03-22T11:18:49.644Z,722.00
2023-03-22T11:22:49.211Z,573.00
2023-03-22T11:26:49.389Z,990.00
2023-03-22T11:30:49.581Z,1396.00
2023-03-22T11:34:50.750Z,1736.00
2023-03-22T11:38:49.786Z,1778.00
2023-03-22T11:42:49.864Z,1768.00
2023-03-22T11:46:50.085Z,1912.00
2023-03-22T11:50:50.325Z,1864.00
2023-03-22T11:54:52.416Z,1814.00
2023-03-22T11:58:50.415Z,1992.00
2023-03-22T12:02:50.436Z,1056.00
2023-03-22T12:06:50.355Z,1280.00
2023-03-22T12:10:50.319Z,1904.00
2023-03-22T12:14:50.278Z,1955.00
2023-03-22T12:18:50.255Z,2054.00
2023-03-22T12:22:50.279Z,2259.00
2023-03-22T12:26:50.372Z,2169.00
2023-03-22T12:30:50.535Z,1237.00
2023-03-22T12:34:52.532Z,801.00
2023-03-22T12:38:51.409Z,971.00
2023-03-22T12:42:54.923Z,935.00
2023-03-22T12:46:51.890Z,810.00
2023-03-22T12:50:50.703Z,631.00
2023-03-22T12:54:50.622Z,688.00
2023-03-22T12:58:50.608Z,637.00
2023-03-22T13:02:50.648Z,592.00
2023-03-22T13:06:50.521Z,550.00
2023-03-22T13:10:50.488Z,526.00
2023-03-22T13:14:50.454Z,547.00
2023-03-22T13:18:50.420Z,664.00
2023-03-22T13:22:50.424Z,603.00
2023-03-22T13:26:50.376Z,657.00
2023-03-22T13:30:50.345Z,696.00
2023-03-22T13:34:50.293Z,609.00
2023-03-22T13:38:50.354Z,533.00
2023-03-22T13:42:50.385Z,591.00
2023-03-22T13:46:50.399Z,501.00
2023-03-22T13:50:50.423Z,587.00
2023-03-22T13:54:50.438Z,616.00
2023-03-22T13:58:50.536Z,575.00
2023-03-22T14:02:50.621Z,527.00
2023-03-22T14:06:50.725Z,566.00
2023-03-22T14:10:50.883Z,583.00
2023-03-22T14:14:50.895Z,561.00
2023-03-22T14:18:51.059Z,638.00
2023-03-22T14:47:51.484Z,500.00
2023-03-22T14:56:01.747Z,500.00
2023-03-22T15:00:01.775Z,578.00
2023-03-22T15:04:01.861Z,839.00
2023-03-22T15:08:01.885Z,796.00
2023-03-22T15:12:01.956Z,982.00
2023-03-22T15:16:02.091Z,992.00
2023-03-22T15:20:02.109Z,939.00
2023-03-22T15:24:02.129Z,1109.00
2023-03-22T15:28:02.228Z,1131.00
2023-03-22T15:32:02.281Z,1221.00
2023-03-22T15:36:02.828Z,1052.00
2023-03-22T15:40:02.479Z,1053.00
2023-03-22T15:44:02.472Z,1269.00
2023-03-22T15:48:02.672Z,1322.00
2023-03-22T15:52:02.847Z,1780.00
2023-03-22T15:56:03.034Z,1600.00
2023-03-22T16:00:03.182Z,1584.00
2023-03-22T16:04:03.397Z,1380.00
2023-03-22T16:08:03.547Z,1887.00
2023-03-22T16:12:03.755Z,1822.00
2023-03-22T16:16:03.915Z,1815.00
2023-03-22T16:20:04.134Z,1927.00
2023-03-22T16:24:04.185Z,2018.00
2023-03-22T16:28:04.385Z,2207.00
2023-03-22T16:32:04.506Z,2437.00
2023-03-22T16:36:04.650Z,2544.00
2023-03-22T16:40:04.895Z,2638.00
2023-03-22T16:44:04.926Z,2507.00
2023-03-22T16:48:05.121Z,2464.00
2023-03-22T16:52:05.291Z,2358.00
2023-03-22T16:56:05.276Z,2329.00
2023-03-22T17:00:05.959Z,2436.00
2023-03-22T17:04:05.187Z,2522.00
2023-03-22T17:08:05.314Z,2620.00
2023-03-22T17:12:05.123Z,2555.00
2023-03-22T17:16:05.161Z,2595.00
2023-03-22T17:20:05.045Z,2700.00
2023-03-22T17:24:05.167Z,2754.00
2023-03-22T17:28:05.302Z,2775.00
2023-03-22T17:36:05.373Z,2857.00
2023-03-22T17:44:05.313Z,2922.00
2023-03-22T17:48:05.289Z,2920.00
2023-03-22T17:52:05.169Z,2919.00
2023-03-22T17:56:43.213Z,2929.00
2023-03-22T18:00:06.086Z,2944.00
2023-03-22T18:04:05.067Z,2947.00
2023-03-22T18:08:26.456Z,2960.00
2023-03-22T18:12:06.039Z,2959.00
2023-03-22T18:16:05.063Z,2957.00
2023-03-22T18:20:20.848Z,2959.00
2023-03-22T18:24:05.919Z,2970.00
2023-03-22T18:28:04.883Z,2970.00
2023-03-22T18:32:12.301Z,2971.00
2023-03-22T18:36:05.843Z,2969.00
2023-03-22T18:40:32.492Z,2948.00
2023-03-22T18:44:05.719Z,2963.00
2023-03-22T18:48:04.716Z,2951.00
2023-03-22T18:56:06.843Z,2941.00
2023-03-22T19:00:04.603Z,2945.00
2023-03-22T19:04:04.521Z,2981.00
2023-03-22T19:08:19.765Z,2957.00
2023-03-22T19:12:05.450Z,2878.00
2023-03-22T19:16:04.448Z,3382.00
2023-03-22T19:20:04.617Z,3586.00
2023-03-22T19:24:04.761Z,3467.00
2023-03-22T19:28:06.634Z,3440.00
2023-03-22T19:32:04.731Z,3327.00
2023-03-22T19:36:04.753Z,3231.00
2023-03-22T19:41:06.185Z,3168.00
2023-03-22T19:44:06.167Z,3110.00
2023-03-22T19:48:04.801Z,3041.00
2023-03-22T19:52:04.644Z,2972.00
2023-03-22T19:56:04.605Z,2970.00
2023-03-22T20:00:43.857Z,2964.00
2023-03-22T20:04:05.561Z,2982.00
2023-03-22T20:08:04.544Z,3002.00
2023-03-22T20:12:04.732Z,2967.00
2023-03-22T20:16:04.704Z,2968.00
2023-03-22T20:20:04.753Z,2965.00
2023-03-22T20:24:04.641Z,2998.00
2023-03-22T20:28:04.530Z,2976.00
2023-03-22T20:32:04.546Z,2987.00
2023-03-22T20:36:04.605Z,3018.00
2023-03-22T20:40:04.469Z,3009.00
2023-03-22T20:44:04.424Z,3029.00
2023-03-22T20:48:04.408Z,3054.00
2023-03-22T20:52:04.340Z,3042.00
2023-03-22T20:56:04.472Z,3048.00
2023-03-22T21:00:04.525Z,3061.00
2023-03-22T21:04:04.743Z,3044.00
2023-03-22T21:08:04.700Z,3070.00
2023-03-22T21:12:04.670Z,3036.00
2023-03-22T21:16:04.644Z,3047.00
2023-03-22T21:20:04.582Z,3027.00
2023-03-22T21:24:04.559Z,3022.00
2023-03-22T21:28:04.505Z,3039.00
2023-03-22T21:32:04.511Z,3016.00
2023-03-22T21:36:04.470Z,3009.00
2023-03-22T21:40:04.405Z,3000.00
2023-03-22T21:44:04.389Z,3000.00
2023-03-22T21:48:04.348Z,2965.00
2023-03-22T21:52:04.341Z,2982.00
2023-03-22T21:56:04.270Z,2966.00
2023-03-22T22:00:04.237Z,2968.00
2023-03-22T22:04:04.217Z,2980.00
2023-03-22T22:08:04.153Z,2939.00
2023-03-22T22:12:04.125Z,2926.00
2023-03-22T22:16:04.106Z,2910.00
2023-03-22T22:20:04.063Z,2916.00
2023-03-22T22:24:04.054Z,2915.00
2023-03-22T22:28:04.096Z,2895.00
2023-03-22T22:32:03.933Z,2872.00
2023-03-22T22:36:03.954Z,2865.00
2023-03-22T22:40:03.945Z,2851.00
2023-03-22T22:44:03.980Z,2845.00
2023-03-22T22:48:03.996Z,2815.00
2023-03-22T22:52:03.964Z,2827.00
2023-03-22T22:56:03.973Z,2788.00
2023-03-22T23:00:04.016Z,2800.00
2023-03-22T23:04:04.035Z,2798.00
2023-03-22T23:08:04.043Z,2792.00
2023-03-22T23:12:04.065Z,2761.00
2023-03-22T23:16:04.109Z,2756.00
2023-03-22T23:20:04.132Z,2762.00
2023-03-22T23:24:04.142Z,2740.00
2023-03-22T23:28:04.179Z,2745.00
2023-03-22T23:32:04.210Z,2730.00
2023-03-22T23:36:04.311Z,2713.00
2023-03-22T23:40:04.270Z,2717.00
2023-03-22T23:44:04.325Z,2684.00
2023-03-22T23:48:04.339Z,2649.00
2023-03-22T23:52:04.403Z,2672.00
2023-03-22T23:56:04.461Z,2653.00
